sensor_id;sensor_type;location;lat;lon;timestamp;pressure;altitude;pressure_sealevel;temperature;humidity
75650;BME280;64245;51.282;22.494;2023-09-19T00:01:42;98631.06;;;16.63;100.00
75650;BME280;64245;51.282;22.494;2023-09-19T00:04:14;98641.59;;;16.66;100.00
75650;BME280;64245;51.282;22.494;2023-09-19T00:06:40;98609.28;;;16.56;100.00
75650;BME280;64245;51.282;22.494;2023-09-19T00:09:05;98629.72;;;16.73;100.00
75650;BME280;64245;51.282;22.494;2023-09-19T00:11:36;98636.16;;;16.66;100.00
75650;BME280;64245;51.282;22.494;2023-09-19T00:14:03;98634.31;;;16.73;100.00
75650;BME280;64245;51.282;22.494;2023-09-19T00:16:30;98625.72;;;16.69;100.00
75650;BME280;64245;51.282;22.494;2023-09-19T00:18:58;98627.63;;;16.75;100.00
75650;BME280;64245;51.282;22.494;2023-09-19T00:21:31;98625.53;;;16.77;100.00
75650;BME280;64245;51.282;22.494;2023-09-19T00:23:57;98605.66;;;16.70;100.00
75650;BME280;64245;51.282;22.494;2023-09-19T00:26:23;98621.34;;;16.75;100.00
75650;BME280;64245;51.282;22.494;2023-09-19T00:28:52;98620.69;;;16.66;100.00
75650;BME280;64245;51.282;22.494;2023-09-19T00:31:18;98622.47;;;16.59;100.00
75650;BME280;64245;51.282;22.494;2023-09-19T00:33:43;98625.63;;;16.63;100.00
75650;BME280;64245;51.282;22.494;2023-09-19T00:36:09;98625.00;;;16.61;100.00
75650;BME280;64245;51.282;22.494;2023-09-19T00:38:35;98625.59;;;16.56;100.00
75650;BME280;64245;51.282;22.494;2023-09-19T00:41:00;98614.09;;;16.54;100.00
75650;BME280;64245;51.282;22.494;2023-09-19T00:43:27;98614.72;;;16.56;100.00
75650;BME280;64245;51.282;22.494;2023-09-19T00:45:54;98609.91;;;16.58;100.00
75650;BME280;64245;51.282;22.494;2023-09-19T00:48:20;98611.78;;;16.51;100.00
75650;BME280;64245;51.282;22.494;2023-09-19T00:50:48;98603.41;;;16.52;100.00
75650;BME280;64245;51.282;22.494;2023-09-19T00:53:20;98607.13;;;16.45;100.00
75650;BME280;64245;51.282;22.494;2023-09-19T00:55:47;98609.38;;;16.41;100.00
75650;BME280;64245;51.282;22.494;2023-09-19T00:58:13;98594.97;;;16.41;100.00
75650;BME280;64245;51.282;22.494;2023-09-19T01:00:40;98606.34;;;16.51;100.00
75650;BME280;64245;51.282;22.494;2023-09-19T01:03:07;98606.78;;;16.54;100.00
75650;BME280;64245;51.282;22.494;2023-09-19T01:05:36;98594.63;;;16.50;100.00
75650;BME280;64245;51.282;22.494;2023-09-19T01:08:02;98600.69;;;16.52;100.00
75650;BME280;64245;51.282;22.494;2023-09-19T01:10:27;98576.84;;;16.48;100.00
75650;BME280;64245;51.282;22.494;2023-09-19T01:15:51;98577.06;;;16.53;100.00
75650;BME280;64245;51.282;22.494;2023-09-19T01:18:46;98579.16;;;16.51;100.00
75650;BME280;64245;51.282;22.494;2023-09-19T01:21:28;98578.13;;;16.52;100.00
75650;BME280;64245;51.282;22.494;2023-09-19T01:24:30;98565.38;;;16.52;100.00
75650;BME280;64245;51.282;22.494;2023-09-19T01:30:19;98563.91;;;16.56;100.00
75650;BME280;64245;51.282;22.494;2023-09-19T01:32:51;98546.53;;;16.51;100.00
75650;BME280;64245;51.282;22.494;2023-09-19T01:35:18;98552.63;;;16.53;100.00
75650;BME280;64245;51.282;22.494;2023-09-19T01:37:46;98555.72;;;16.50;100.00
75650;BME280;64245;51.282;22.494;2023-09-19T01:40:15;98547.06;;;16.40;100.00
75650;BME280;64245;51.282;22.494;2023-09-19T01:43:14;98556.97;;;16.47;100.00
75650;BME280;64245;51.282;22.494;2023-09-19T01:45:54;98538.72;;;16.35;100.00
75650;BME280;64245;51.282;22.494;2023-09-19T01:48:38;98552.16;;;16.49;100.00
75650;BME280;64245;51.282;22.494;2023-09-19T01:51:10;98543.38;;;16.47;100.00
75650;BME280;64245;51.282;22.494;2023-09-19T01:54:02;98540.59;;;16.41;100.00
75650;BME280;64245;51.282;22.494;2023-09-19T01:56:35;98543.91;;;16.36;100.00
75650;BME280;64245;51.282;22.494;2023-09-19T01:59:07;98549.25;;;16.51;100.00
75650;BME280;64245;51.282;22.494;2023-09-19T02:01:37;98537.75;;;16.49;100.00
75650;BME280;64245;51.282;22.494;2023-09-19T02:04:04;98535.63;;;16.44;100.00
75650;BME280;64245;51.282;22.494;2023-09-19T02:06:30;98535.16;;;16.41;100.00
75650;BME280;64245;51.282;22.494;2023-09-19T02:08:55;98533.28;;;16.35;100.00
75650;BME280;64245;51.282;22.494;2023-09-19T02:11:21;98533.47;;;16.33;100.00
75650;BME280;64245;51.282;22.494;2023-09-19T02:13:47;98535.34;;;16.33;100.00
75650;BME280;64245;51.282;22.494;2023-09-19T02:16:12;98521.91;;;16.24;100.00
75650;BME280;64245;51.282;22.494;2023-09-19T02:18:38;98525.47;;;16.25;100.00
75650;BME280;64245;51.282;22.494;2023-09-19T02:21:05;98523.44;;;16.34;100.00
75650;BME280;64245;51.282;22.494;2023-09-19T02:23:32;98506.66;;;16.23;100.00
75650;BME280;64245;51.282;22.494;2023-09-19T02:25:59;98508.97;;;16.27;100.00
75650;BME280;64245;51.282;22.494;2023-09-19T02:28:30;98519.44;;;16.30;100.00
75650;BME280;64245;51.282;22.494;2023-09-19T02:31:00;98521.66;;;16.19;100.00
75650;BME280;64245;51.282;22.494;2023-09-19T02:33:27;98512.25;;;16.15;100.00
75650;BME280;64245;51.282;22.494;2023-09-19T02:35:57;98509.94;;;16.19;100.00
75650;BME280;64245;51.282;22.494;2023-09-19T02:38:23;98504.13;;;16.22;100.00
75650;BME280;64245;51.282;22.494;2023-09-19T02:40:50;98504.97;;;16.22;100.00
75650;BME280;64245;51.282;22.494;2023-09-19T02:43:16;98504.72;;;16.17;100.00
75650;BME280;64245;51.282;22.494;2023-09-19T02:45:42;98497.56;;;16.10;100.00
75650;BME280;64245;51.282;22.494;2023-09-19T02:48:08;98505.34;;;16.13;100.00
75650;BME280;64245;51.282;22.494;2023-09-19T02:50:34;98503.66;;;16.12;100.00
75650;BME280;64245;51.282;22.494;2023-09-19T02:53:00;98505.94;;;16.08;100.00
75650;BME280;64245;51.282;22.494;2023-09-19T02:55:25;98506.50;;;16.04;100.00
75650;BME280;64245;51.282;22.494;2023-09-19T02:57:52;98501.53;;;16.07;100.00
75650;BME280;64245;51.282;22.494;2023-09-19T03:00:21;98495.50;;;16.12;100.00
75650;BME280;64245;51.282;22.494;2023-09-19T03:02:54;98498.66;;;16.15;100.00
75650;BME280;64245;51.282;22.494;2023-09-19T03:05:21;98488.19;;;16.12;100.00
75650;BME280;64245;51.282;22.494;2023-09-19T03:07:49;98478.16;;;16.13;100.00
75650;BME280;64245;51.282;22.494;2023-09-19T03:10:17;98495.97;;;16.22;100.00
75650;BME280;64245;51.282;22.494;2023-09-19T03:12:43;98483.44;;;16.21;100.00
75650;BME280;64245;51.282;22.494;2023-09-19T03:15:11;98489.25;;;16.18;100.00
75650;BME280;64245;51.282;22.494;2023-09-19T03:17:37;98477.91;;;16.08;100.00
75650;BME280;64245;51.282;22.494;2023-09-19T03:20:03;98477.13;;;16.14;100.00
75650;BME280;64245;51.282;22.494;2023-09-19T03:22:34;98470.88;;;16.13;100.00
75650;BME280;64245;51.282;22.494;2023-09-19T03:25:00;98459.78;;;16.15;100.00
75650;BME280;64245;51.282;22.494;2023-09-19T03:27:26;98477.59;;;16.24;100.00
75650;BME280;64245;51.282;22.494;2023-09-19T03:29:53;98472.13;;;16.17;100.00
75650;BME280;64245;51.282;22.494;2023-09-19T03:32:19;98446.56;;;16.05;100.00
75650;BME280;64245;51.282;22.494;2023-09-19T03:34:45;98458.19;;;16.27;100.00
75650;BME280;64245;51.282;22.494;2023-09-19T03:37:10;98458.97;;;16.21;100.00
75650;BME280;64245;51.282;22.494;2023-09-19T03:39:36;98468.34;;;16.18;100.00
75650;BME280;64245;51.282;22.494;2023-09-19T03:42:02;98460.41;;;16.17;100.00
75650;BME280;64245;51.282;22.494;2023-09-19T03:44:32;98465.69;;;16.25;100.00
75650;BME280;64245;51.282;22.494;2023-09-19T03:46:58;98462.81;;;16.33;100.00
75650;BME280;64245;51.282;22.494;2023-09-19T03:49:24;98462.63;;;16.35;100.00
75650;BME280;64245;51.282;22.494;2023-09-19T03:51:50;98457.16;;;16.28;100.00
75650;BME280;64245;51.282;22.494;2023-09-19T03:54:16;98458.97;;;16.21;100.00
75650;BME280;64245;51.282;22.494;2023-09-19T03:56:42;98459.22;;;16.26;100.00
75650;BME280;64245;51.282;22.494;2023-09-19T03:59:09;98462.13;;;16.24;100.00
75650;BME280;64245;51.282;22.494;2023-09-19T04:01:35;98451.66;;;16.15;100.00
75650;BME280;64245;51.282;22.494;2023-09-19T04:04:01;98461.06;;;16.19;100.00
75650;BME280;64245;51.282;22.494;2023-09-19T04:06:36;98453.28;;;16.09;100.00
75650;BME280;64245;51.282;22.494;2023-09-19T04:09:03;98453.53;;;16.14;100.00
75650;BME280;64245;51.282;22.494;2023-09-19T04:11:33;98452.88;;;16.12;100.00
75650;BME280;64245;51.282;22.494;2023-09-19T04:13:59;98456.84;;;16.16;100.00
75650;BME280;64245;51.282;22.494;2023-09-19T04:16:25;98445.56;;;16.13;100.00
75650;BME280;64245;51.282;22.494;2023-09-19T04:18:51;98446.41;;;16.13;100.00
75650;BME280;64245;51.282;22.494;2023-09-19T04:21:16;98442.41;;;16.09;100.00
75650;BME280;64245;51.282;22.494;2023-09-19T04:23:42;98436.13;;;16.09;100.00
75650;BME280;64245;51.282;22.494;2023-09-19T04:26:08;98429.03;;;16.08;100.00
75650;BME280;64245;51.282;22.494;2023-09-19T04:28:34;98431.94;;;16.06;100.00
75650;BME280;64245;51.282;22.494;2023-09-19T04:31:04;98431.50;;;16.03;100.00
75650;BME280;64245;51.282;22.494;2023-09-19T04:33:30;98430.47;;;16.04;100.00
75650;BME280;64245;51.282;22.494;2023-09-19T04:35:55;98424.00;;;16.05;100.00
75650;BME280;64245;51.282;22.494;2023-09-19T04:38:22;98424.63;;;16.07;100.00
75650;BME280;64245;51.282;22.494;2023-09-19T04:40:48;98422.91;;;15.99;100.00
75650;BME280;64245;51.282;22.494;2023-09-19T04:43:13;98421.66;;;16.02;100.00
75650;BME280;64245;51.282;22.494;2023-09-19T04:45:40;98419.78;;;16.02;100.00
75650;BME280;64245;51.282;22.494;2023-09-19T04:48:06;98412.50;;;16.03;100.00
75650;BME280;64245;51.282;22.494;2023-09-19T04:50:34;98423.09;;;15.98;100.00
75650;BME280;64245;51.282;22.494;2023-09-19T04:53:00;98415.66;;;16.06;100.00
75650;BME280;64245;51.282;22.494;2023-09-19T04:55:26;98426.06;;;15.96;100.00
75650;BME280;64245;51.282;22.494;2023-09-19T04:57:53;98419.16;;;16.00;100.00
75650;BME280;64245;51.282;22.494;2023-09-19T05:00:23;98409.63;;;16.11;100.00
75650;BME280;64245;51.282;22.494;2023-09-19T05:02:57;98414.00;;;16.12;100.00
75650;BME280;64245;51.282;22.494;2023-09-19T05:05:23;98408.59;;;16.18;100.00
75650;BME280;64245;51.282;22.494;2023-09-19T05:07:49;98416.53;;;16.20;100.00
75650;BME280;64245;51.282;22.494;2023-09-19T05:10:16;98409.84;;;16.16;100.00
75650;BME280;64245;51.282;22.494;2023-09-19T05:12:47;98401.28;;;16.19;100.00
75650;BME280;64245;51.282;22.494;2023-09-19T05:15:14;98408.19;;;16.21;100.00
75650;BME280;64245;51.282;22.494;2023-09-19T05:17:49;98394.41;;;16.23;100.00
75650;BME280;64245;51.282;22.494;2023-09-19T05:20:16;98403.63;;;16.29;100.00
75650;BME280;64245;51.282;22.494;2023-09-19T05:22:42;98389.84;;;16.30;100.00
75650;BME280;64245;51.282;22.494;2023-09-19T05:25:11;98401.41;;;16.45;100.00
75650;BME280;64245;51.282;22.494;2023-09-19T05:27:42;98403.72;;;16.48;100.00
75650;BME280;64245;51.282;22.494;2023-09-19T05:30:10;98389.47;;;16.40;100.00
75650;BME280;64245;51.282;22.494;2023-09-19T05:32:36;98388.00;;;16.44;100.00
75650;BME280;64245;51.282;22.494;2023-09-19T05:35:02;98401.22;;;16.60;100.00
75650;BME280;64245;51.282;22.494;2023-09-19T05:37:29;98389.38;;;16.74;100.00
75650;BME280;64245;51.282;22.494;2023-09-19T05:39:55;98388.56;;;16.80;100.00
75650;BME280;64245;51.282;22.494;2023-09-19T05:42:21;98377.06;;;16.85;100.00
75650;BME280;64245;51.282;22.494;2023-09-19T05:44:46;98390.47;;;16.93;100.00
75650;BME280;64245;51.282;22.494;2023-09-19T05:47:12;98382.97;;;17.08;100.00
75650;BME280;64245;51.282;22.494;2023-09-19T05:49:38;98367.06;;;17.12;100.00
75650;BME280;64245;51.282;22.494;2023-09-19T05:52:10;98370.41;;;17.27;100.00
75650;BME280;64245;51.282;22.494;2023-09-19T05:54:36;98371.00;;;17.36;100.00
75650;BME280;64245;51.282;22.494;2023-09-19T05:57:03;98381.91;;;17.49;100.00
75650;BME280;64245;51.282;22.494;2023-09-19T05:59:29;98380.66;;;17.65;100.00
75650;BME280;64245;51.282;22.494;2023-09-19T06:01:55;98386.50;;;17.75;100.00
75650;BME280;64245;51.282;22.494;2023-09-19T06:04:21;98361.56;;;17.84;98.24
75650;BME280;64245;51.282;22.494;2023-09-19T06:06:47;98385.75;;;18.12;99.37
75650;BME280;64245;51.282;22.494;2023-09-19T06:09:14;98379.44;;;18.25;97.50
75650;BME280;64245;51.282;22.494;2023-09-19T06:11:43;98383.34;;;18.42;97.17
75650;BME280;64245;51.282;22.494;2023-09-19T06:14:09;98381.41;;;18.49;96.01
75650;BME280;64245;51.282;22.494;2023-09-19T06:16:36;98377.84;;;18.62;95.59
75650;BME280;64245;51.282;22.494;2023-09-19T06:19:06;98377.31;;;18.78;95.21
75650;BME280;64245;51.282;22.494;2023-09-19T06:21:34;98381.00;;;18.90;93.68
75650;BME280;64245;51.282;22.494;2023-09-19T06:24:00;98382.03;;;18.96;94.79
75650;BME280;64245;51.282;22.494;2023-09-19T06:26:26;98373.41;;;18.99;93.62
75650;BME280;64245;51.282;22.494;2023-09-19T06:28:52;98371.06;;;19.03;93.54
75650;BME280;64245;51.282;22.494;2023-09-19T06:31:18;98380.53;;;19.00;92.69
75650;BME280;64245;51.282;22.494;2023-09-19T06:33:46;98374.19;;;19.06;91.99
75650;BME280;64245;51.282;22.494;2023-09-19T06:36:12;98381.50;;;19.12;92.15
75650;BME280;64245;51.282;22.494;2023-09-19T06:38:38;98380.84;;;19.17;91.48
75650;BME280;64245;51.282;22.494;2023-09-19T06:41:05;98380.00;;;19.16;92.10
75650;BME280;64245;51.282;22.494;2023-09-19T06:43:31;98398.44;;;19.21;90.61
75650;BME280;64245;51.282;22.494;2023-09-19T06:45:58;98388.28;;;19.28;91.75
75650;BME280;64245;51.282;22.494;2023-09-19T06:48:23;98390.41;;;19.26;91.12
75650;BME280;64245;51.282;22.494;2023-09-19T06:50:56;98396.88;;;19.31;92.55
75650;BME280;64245;51.282;22.494;2023-09-19T06:53:25;98386.41;;;19.28;89.96
75650;BME280;64245;51.282;22.494;2023-09-19T06:55:51;98399.97;;;19.42;90.07
75650;BME280;64245;51.282;22.494;2023-09-19T06:58:17;98407.53;;;19.40;90.97
75650;BME280;64245;51.282;22.494;2023-09-19T07:00:43;98400.19;;;19.40;89.22
75650;BME280;64245;51.282;22.494;2023-09-19T07:03:10;98405.91;;;19.32;91.00
75650;BME280;64245;51.282;22.494;2023-09-19T07:05:41;98405.50;;;19.28;88.71
75650;BME280;64245;51.282;22.494;2023-09-19T07:08:09;98395.72;;;19.21;90.80
75650;BME280;64245;51.282;22.494;2023-09-19T07:10:36;98409.47;;;19.32;89.41
75650;BME280;64245;51.282;22.494;2023-09-19T07:13:03;98413.44;;;19.37;89.09
75650;BME280;64245;51.282;22.494;2023-09-19T07:15:31;98421.59;;;19.43;89.59
75650;BME280;64245;51.282;22.494;2023-09-19T07:17:59;98415.03;;;19.44;90.17
75650;BME280;64245;51.282;22.494;2023-09-19T07:20:26;98416.34;;;19.42;89.21
75650;BME280;64245;51.282;22.494;2023-09-19T07:22:53;98419.22;;;19.47;88.06
75650;BME280;64245;51.282;22.494;2023-09-19T07:25:21;98424.06;;;19.45;87.94
75650;BME280;64245;51.282;22.494;2023-09-19T07:27:47;98424.31;;;19.43;88.66
75650;BME280;64245;51.282;22.494;2023-09-19T07:30:13;98430.56;;;19.50;89.03
75650;BME280;64245;51.282;22.494;2023-09-19T07:32:40;98430.44;;;19.39;88.40
75650;BME280;64245;51.282;22.494;2023-09-19T07:35:06;98433.59;;;19.36;88.44
75650;BME280;64245;51.282;22.494;2023-09-19T07:37:33;98429.47;;;19.26;88.10
75650;BME280;64245;51.282;22.494;2023-09-19T07:40:00;98431.41;;;19.19;90.13
75650;BME280;64245;51.282;22.494;2023-09-19T07:42:27;98426.81;;;19.20;89.64
75650;BME280;64245;51.282;22.494;2023-09-19T07:44:52;98438.50;;;19.27;89.69
75650;BME280;64245;51.282;22.494;2023-09-19T07:47:20;98425.44;;;19.04;90.18
75650;BME280;64245;51.282;22.494;2023-09-19T07:49:47;98435.88;;;19.07;90.32
75650;BME280;64245;51.282;22.494;2023-09-19T07:52:13;98446.19;;;19.05;90.32
75650;BME280;64245;51.282;22.494;2023-09-19T07:54:39;98443.34;;;18.93;90.36
75650;BME280;64245;51.282;22.494;2023-09-19T07:57:11;98436.19;;;18.92;90.35
75650;BME280;64245;51.282;22.494;2023-09-19T07:59:37;98445.00;;;18.94;90.58
75650;BME280;64245;51.282;22.494;2023-09-19T08:02:04;98436.19;;;18.92;90.22
75650;BME280;64245;51.282;22.494;2023-09-19T08:04:30;98450.03;;;18.97;89.90
75650;BME280;64245;51.282;22.494;2023-09-19T08:06:59;98455.09;;;18.94;89.84
75650;BME280;64245;51.282;22.494;2023-09-19T08:09:26;98442.69;;;18.98;89.94
75650;BME280;64245;51.282;22.494;2023-09-19T08:11:53;98444.13;;;19.01;90.56
75650;BME280;64245;51.282;22.494;2023-09-19T08:14:19;98440.16;;;18.96;90.05
75650;BME280;64245;51.282;22.494;2023-09-19T08:16:45;98443.75;;;18.97;90.85
75650;BME280;64245;51.282;22.494;2023-09-19T08:19:12;98446.28;;;18.92;90.01
75650;BME280;64245;51.282;22.494;2023-09-19T08:21:38;98435.38;;;18.92;90.53
75650;BME280;64245;51.282;22.494;2023-09-19T08:24:04;98441.69;;;18.86;90.87
75650;BME280;64245;51.282;22.494;2023-09-19T08:26:30;98440.25;;;18.83;90.83
75650;BME280;64245;51.282;22.494;2023-09-19T08:28:56;98446.75;;;18.82;91.62
75650;BME280;64245;51.282;22.494;2023-09-19T08:31:22;98439.84;;;18.80;91.15
75650;BME280;64245;51.282;22.494;2023-09-19T08:33:50;98443.81;;;18.84;91.41
75650;BME280;64245;51.282;22.494;2023-09-19T08:36:17;98444.66;;;18.84;91.59
75650;BME280;64245;51.282;22.494;2023-09-19T08:38:43;98437.97;;;18.74;91.82
75650;BME280;64245;51.282;22.494;2023-09-19T08:41:09;98444.91;;;18.76;92.18
75650;BME280;64245;51.282;22.494;2023-09-19T08:43:35;98441.97;;;18.78;92.41
75650;BME280;64245;51.282;22.494;2023-09-19T08:46:09;98451.63;;;18.74;91.51
75650;BME280;64245;51.282;22.494;2023-09-19T08:48:39;98439.63;;;18.81;92.68
75650;BME280;64245;51.282;22.494;2023-09-19T08:51:13;98418.06;;;18.67;93.58
75650;BME280;64245;51.282;22.494;2023-09-19T08:56:17;98439.63;;;18.81;93.16
75650;BME280;64245;51.282;22.494;2023-09-19T08:58:50;98448.06;;;18.73;91.99
75650;BME280;64245;51.282;22.494;2023-09-19T09:01:20;98438.00;;;18.67;92.54
75650;BME280;64245;51.282;22.494;2023-09-19T09:03:53;98441.00;;;18.59;94.44
75650;BME280;64245;51.282;22.494;2023-09-19T09:06:20;98433.84;;;18.51;93.42
75650;BME280;64245;51.282;22.494;2023-09-19T09:08:46;98443.72;;;18.59;94.20
75650;BME280;64245;51.282;22.494;2023-09-19T09:11:16;98439.50;;;18.63;94.84
75650;BME280;64245;51.282;22.494;2023-09-19T09:13:46;98447.97;;;18.42;96.57
75650;BME280;64245;51.282;22.494;2023-09-19T09:16:14;98441.88;;;18.40;98.86
75650;BME280;64245;51.282;22.494;2023-09-19T09:18:44;98440.19;;;18.39;100.00
75650;BME280;64245;51.282;22.494;2023-09-19T09:21:11;98448.97;;;18.47;100.00
75650;BME280;64245;51.282;22.494;2023-09-19T09:23:40;98448.16;;;18.47;100.00
75650;BME280;64245;51.282;22.494;2023-09-19T09:26:06;98450.44;;;18.50;100.00
75650;BME280;64245;51.282;22.494;2023-09-19T09:28:34;98452.31;;;18.49;100.00
75650;BME280;64245;51.282;22.494;2023-09-19T09:31:02;98448.59;;;18.44;100.00
75650;BME280;64245;51.282;22.494;2023-09-19T09:33:30;98452.78;;;18.46;100.00
75650;BME280;64245;51.282;22.494;2023-09-19T09:36:01;98450.28;;;18.38;100.00
75650;BME280;64245;51.282;22.494;2023-09-19T09:38:29;98446.94;;;18.29;100.00
75650;BME280;64245;51.282;22.494;2023-09-19T09:40:59;98452.84;;;18.20;100.00
75650;BME280;64245;51.282;22.494;2023-09-19T09:43:27;98452.44;;;18.16;100.00
75650;BME280;64245;51.282;22.494;2023-09-19T09:46:17;98450.75;;;18.15;100.00
75650;BME280;64245;51.282;22.494;2023-09-19T09:49:05;98449.03;;;18.34;100.00
75650;BME280;64245;51.282;22.494;2023-09-19T09:52:02;98443.16;;;18.30;100.00
75650;BME280;64245;51.282;22.494;2023-09-19T09:54:33;98449.06;;;18.14;100.00
75650;BME280;64245;51.282;22.494;2023-09-19T09:57:10;98453.88;;;18.25;100.00
75650;BME280;64245;51.282;22.494;2023-09-19T09:59:53;98448.22;;;18.27;100.00
75650;BME280;64245;51.282;22.494;2023-09-19T10:02:25;98449.88;;;18.28;100.00
75650;BME280;64245;51.282;22.494;2023-09-19T10:04:55;98448.81;;;18.29;100.00
75650;BME280;64245;51.282;22.494;2023-09-19T10:07:33;98440.00;;;18.34;100.00
75650;BME280;64245;51.282;22.494;2023-09-19T10:10:03;98437.28;;;18.34;100.00
75650;BME280;64245;51.282;22.494;2023-09-19T10:12:45;98438.75;;;18.36;100.00
75650;BME280;64245;51.282;22.494;2023-09-19T10:15:18;98445.84;;;18.44;100.00
75650;BME280;64245;51.282;22.494;2023-09-19T10:17:47;98444.13;;;18.49;100.00
75650;BME280;64245;51.282;22.494;2023-09-19T10:20:15;98439.50;;;18.56;100.00
75650;BME280;64245;51.282;22.494;2023-09-19T10:23:00;98443.06;;;18.57;100.00
75650;BME280;64245;51.282;22.494;2023-09-19T10:25:27;98435.72;;;18.57;100.00
75650;BME280;64245;51.282;22.494;2023-09-19T10:28:00;98433.66;;;18.59;100.00
75650;BME280;64245;51.282;22.494;2023-09-19T10:30:29;98433.44;;;18.48;100.00
75650;BME280;64245;51.282;22.494;2023-09-19T10:33:00;98439.16;;;18.40;100.00
75650;BME280;64245;51.282;22.494;2023-09-19T10:35:27;98424.75;;;18.19;100.00
75650;BME280;64245;51.282;22.494;2023-09-19T10:38:00;98441.09;;;18.19;100.00
75650;BME280;64245;51.282;22.494;2023-09-19T10:40:27;98437.31;;;18.20;100.00
75650;BME280;64245;51.282;22.494;2023-09-19T10:43:03;98433.56;;;18.21;100.00
75650;BME280;64245;51.282;22.494;2023-09-19T10:45:34;98439.63;;;18.23;100.00
75650;BME280;64245;51.282;22.494;2023-09-19T10:48:01;98432.31;;;18.17;100.00
75650;BME280;64245;51.282;22.494;2023-09-19T10:50:57;98439.84;;;18.22;100.00
75650;BME280;64245;51.282;22.494;2023-09-19T10:53:21;98435.44;;;18.21;100.00
75650;BME280;64245;51.282;22.494;2023-09-19T10:55:55;98433.34;;;18.16;100.00
75650;BME280;64245;51.282;22.494;2023-09-19T10:58:31;98432.06;;;18.25;100.00
75650;BME280;64245;51.282;22.494;2023-09-19T11:01:00;98417.00;;;18.16;100.00
75650;BME280;64245;51.282;22.494;2023-09-19T11:03:41;98419.72;;;18.16;100.00
75650;BME280;64245;51.282;22.494;2023-09-19T11:06:14;98434.41;;;18.15;100.00
75650;BME280;64245;51.282;22.494;2023-09-19T11:08:55;98427.28;;;18.14;100.00
75650;BME280;64245;51.282;22.494;2023-09-19T11:30:54;98431.16;;;17.67;100.00
75650;BME280;64245;51.282;22.494;2023-09-19T11:33:30;98428.63;;;17.66;100.00
75650;BME280;64245;51.282;22.494;2023-09-19T11:43:46;98438.22;;;17.55;100.00
75650;BME280;64245;51.282;22.494;2023-09-19T11:46:12;98444.72;;;17.41;100.00
75650;BME280;64245;51.282;22.494;2023-09-19T11:48:43;98452.88;;;17.27;100.00
75650;BME280;64245;51.282;22.494;2023-09-19T11:51:14;98448.88;;;17.10;100.00
75650;BME280;64245;51.282;22.494;2023-09-19T11:53:51;98434.41;;;16.97;100.00
75650;BME280;64245;51.282;22.494;2023-09-19T11:56:21;98439.22;;;16.95;100.00
75650;BME280;64245;51.282;22.494;2023-09-19T11:58:50;98447.16;;;16.96;100.00
75650;BME280;64245;51.282;22.494;2023-09-19T12:01:30;98448.84;;;16.90;100.00
75650;BME280;64245;51.282;22.494;2023-09-19T12:03:58;98436.06;;;16.84;100.00
75650;BME280;64245;51.282;22.494;2023-09-19T12:06:26;98430.16;;;16.68;100.00
75650;BME280;64245;51.282;22.494;2023-09-19T12:08:52;98438.94;;;16.76;100.00
75650;BME280;64245;51.282;22.494;2023-09-19T12:11:23;98443.34;;;16.77;100.00
75650;BME280;64245;51.282;22.494;2023-09-19T12:13:50;98442.09;;;16.73;100.00
75650;BME280;64245;51.282;22.494;2023-09-19T12:16:20;98449.00;;;16.76;100.00
75650;BME280;64245;51.282;22.494;2023-09-19T12:18:50;98449.63;;;16.78;100.00
75650;BME280;64245;51.282;22.494;2023-09-19T12:21:24;98445.88;;;16.72;100.00
75650;BME280;64245;51.282;22.494;2023-09-19T12:26:30;98447.97;;;16.83;100.00
75650;BME280;64245;51.282;22.494;2023-09-19T12:29:03;98450.06;;;16.81;100.00
75650;BME280;64245;51.282;22.494;2023-09-19T12:31:31;98447.78;;;16.85;100.00
75650;BME280;64245;51.282;22.494;2023-09-19T12:34:02;98459.50;;;16.85;100.00
75650;BME280;64245;51.282;22.494;2023-09-19T12:36:28;98445.88;;;16.79;100.00
75650;BME280;64245;51.282;22.494;2023-09-19T12:38:57;98448.28;;;16.61;100.00
75650;BME280;64245;51.282;22.494;2023-09-19T12:41:26;98446.91;;;16.71;100.00
75650;BME280;64245;51.282;22.494;2023-09-19T12:43:53;98438.56;;;16.86;100.00
75650;BME280;64245;51.282;22.494;2023-09-19T12:46:22;98441.06;;;16.81;100.00
75650;BME280;64245;51.282;22.494;2023-09-19T12:49:17;98445.22;;;16.77;100.00
75650;BME280;64245;51.282;22.494;2023-09-19T12:51:44;98445.88;;;16.72;100.00
75650;BME280;64245;51.282;22.494;2023-09-19T12:54:09;98441.69;;;16.83;100.00
75650;BME280;64245;51.282;22.494;2023-09-19T12:56:41;98444.44;;;16.89;100.00
75650;BME280;64245;51.282;22.494;2023-09-19T12:59:12;98437.34;;;16.88;100.00
75650;BME280;64245;51.282;22.494;2023-09-19T13:01:40;98440.91;;;17.02;100.00
75650;BME280;64245;51.282;22.494;2023-09-19T13:06:47;98449.94;;;17.09;100.00
75650;BME280;64245;51.282;22.494;2023-09-19T13:09:15;98442.38;;;17.05;100.00
75650;BME280;64245;51.282;22.494;2023-09-19T13:11:42;98438.38;;;17.01;100.00
75650;BME280;64245;51.282;22.494;2023-09-19T13:16:55;98443.03;;;17.20;100.00
75650;BME280;64245;51.282;22.494;2023-09-19T13:19:48;98436.97;;;17.24;100.00
75650;BME280;64245;51.282;22.494;2023-09-19T13:22:45;98440.31;;;17.33;100.00
75650;BME280;64245;51.282;22.494;2023-09-19T13:25:18;98438.88;;;17.31;100.00
75650;BME280;64245;51.282;22.494;2023-09-19T13:27:49;98435.72;;;17.40;100.00
75650;BME280;64245;51.282;22.494;2023-09-19T13:30:20;98440.75;;;17.43;100.00
75650;BME280;64245;51.282;22.494;2023-09-19T13:32:47;98437.19;;;17.36;100.00
75650;BME280;64245;51.282;22.494;2023-09-19T13:35:14;98428.16;;;17.16;100.00
75650;BME280;64245;51.282;22.494;2023-09-19T13:37:40;98445.56;;;17.28;100.00